createdAt,value
2023-05-09T00:00:47.955Z,14.00
2023-05-09T00:03:14.718Z,14.00
2023-05-09T00:05:41.894Z,14.00
2023-05-09T00:08:08.735Z,14.00
2023-05-09T00:10:35.675Z,14.10
2023-05-09T00:13:02.459Z,14.10
2023-05-09T00:15:29.386Z,14.00
2023-05-09T00:17:56.159Z,14.00
2023-05-09T00:20:23.003Z,14.00
2023-05-09T00:22:49.727Z,14.00
2023-05-09T00:25:16.632Z,14.10
2023-05-09T00:27:43.495Z,14.00
2023-05-09T00:30:10.397Z,14.00
2023-05-09T00:35:19.468Z,14.00
2023-05-09T00:37:46.137Z,14.00
2023-05-09T00:40:13.014Z,14.00
2023-05-09T00:42:39.690Z,13.90
2023-05-09T00:45:07.442Z,13.90
2023-05-09T00:47:34.532Z,13.90
2023-05-09T00:50:01.583Z,13.90
2023-05-09T00:52:28.505Z,13.90
2023-05-09T00:54:55.786Z,13.80
2023-05-09T00:57:23.025Z,13.80
2023-05-09T00:59:49.884Z,13.80
2023-05-09T01:02:17.797Z,13.80
2023-05-09T01:04:45.760Z,13.80
2023-05-09T01:07:15.209Z,13.80
2023-05-09T01:09:51.638Z,13.80
2023-05-09T01:12:33.396Z,13.80
2023-05-09T01:15:06.125Z,13.80
2023-05-09T01:17:35.632Z,13.80
2023-05-09T01:20:11.119Z,13.80
2023-05-09T01:22:39.930Z,13.80
2023-05-09T01:25:44.084Z,13.80
2023-05-09T01:28:33.359Z,13.80
2023-05-09T01:31:00.137Z,13.80
2023-05-09T01:33:27.158Z,13.80
2023-05-09T01:35:57.849Z,13.80
2023-05-09T01:38:24.745Z,13.80
2023-05-09T01:40:53.511Z,13.80
2023-05-09T01:43:20.848Z,13.80
2023-05-09T01:45:48.209Z,13.80
2023-05-09T01:48:14.903Z,13.70
2023-05-09T01:50:41.600Z,13.70
2023-05-09T01:53:08.274Z,13.80
2023-05-09T01:55:36.054Z,13.70
2023-05-09T01:58:04.231Z,13.70
2023-05-09T02:00:32.364Z,13.70
2023-05-09T02:02:59.136Z,13.70
2023-05-09T02:05:29.405Z,13.70
2023-05-09T02:07:59.267Z,13.70
2023-05-09T02:10:27.577Z,13.70
2023-05-09T02:12:54.730Z,13.70
2023-05-09T02:15:21.767Z,13.70
2023-05-09T02:17:48.463Z,13.70
2023-05-09T02:20:15.243Z,13.60
2023-05-09T02:22:42.435Z,13.60
2023-05-09T02:25:10.802Z,13.60
2023-05-09T02:27:38.628Z,13.60
2023-05-09T02:30:08.772Z,13.60
2023-05-09T02:32:35.813Z,13.60
2023-05-09T02:35:04.043Z,13.60
2023-05-09T02:37:31.058Z,13.60
2023-05-09T02:39:57.827Z,13.60
2023-05-09T02:42:25.419Z,13.60
2023-05-09T02:44:55.427Z,13.50
2023-05-09T02:47:22.269Z,13.50
2023-05-09T02:49:48.953Z,13.50
2023-05-09T02:52:15.710Z,13.50
2023-05-09T02:54:42.394Z,13.50
2023-05-09T02:57:09.069Z,13.50
2023-05-09T02:59:35.775Z,13.50
2023-05-09T03:02:02.596Z,13.50
2023-05-09T03:04:29.278Z,13.50
2023-05-09T03:06:56.204Z,13.50
2023-05-09T03:09:22.849Z,13.40
2023-05-09T03:11:50.274Z,13.50
2023-05-09T03:14:17.065Z,13.50
2023-05-09T03:16:43.874Z,13.50
2023-05-09T03:19:10.623Z,13.50
2023-05-09T03:21:37.376Z,13.50
2023-05-09T03:24:04.755Z,13.50
2023-05-09T03:26:31.507Z,13.50
2023-05-09T03:28:58.637Z,13.50
2023-05-09T03:31:25.506Z,13.50
2023-05-09T03:33:52.223Z,13.40
2023-05-09T03:36:18.941Z,13.40
2023-05-09T03:38:45.613Z,13.40
2023-05-09T03:41:13.221Z,13.40
2023-05-09T03:43:39.919Z,13.40
2023-05-09T03:46:06.608Z,13.40
2023-05-09T03:48:33.294Z,13.40
2023-05-09T03:50:59.978Z,13.40
2023-05-09T03:53:26.813Z,13.40
2023-05-09T03:55:53.501Z,13.40
2023-05-09T03:58:20.588Z,13.30
2023-05-09T04:00:47.277Z,13.30
2023-05-09T04:03:13.974Z,13.30
2023-05-09T04:05:40.881Z,13.30
2023-05-09T04:08:07.755Z,13.30
2023-05-09T04:10:34.449Z,13.30
2023-05-09T04:13:01.276Z,13.30
2023-05-09T04:15:28.037Z,13.30
2023-05-09T04:17:54.715Z,13.30
2023-05-09T04:20:21.590Z,13.30
2023-05-09T04:22:48.345Z,13.30
2023-05-09T04:25:15.996Z,13.30
2023-05-09T04:27:42.925Z,13.30
2023-05-09T04:30:10.824Z,13.30
2023-05-09T04:32:38.662Z,13.30
2023-05-09T04:35:06.553Z,13.30
2023-05-09T04:37:33.236Z,13.30
2023-05-09T04:39:59.991Z,13.40
2023-05-09T04:42:26.694Z,13.30
2023-05-09T04:44:53.352Z,13.30
2023-05-09T04:47:20.032Z,13.30
2023-05-09T04:49:46.723Z,13.30
2023-05-09T04:52:13.433Z,13.30
2023-05-09T04:54:40.238Z,13.30
2023-05-09T04:57:17.091Z,13.30
2023-05-09T04:59:44.358Z,13.30
2023-05-09T05:02:10.969Z,13.20
2023-05-09T05:04:37.673Z,13.20
2023-05-09T05:07:05.187Z,13.20
2023-05-09T05:09:31.915Z,13.30
2023-05-09T05:12:02.413Z,13.20
2023-05-09T05:14:30.902Z,13.30
2023-05-09T05:16:57.559Z,13.30
2023-05-09T05:19:24.236Z,13.20
2023-05-09T05:21:50.922Z,13.30
2023-05-09T05:24:17.580Z,13.20
2023-05-09T05:26:44.341Z,13.30
2023-05-09T05:29:11.120Z,13.30
2023-05-09T05:31:37.815Z,13.30
2023-05-09T05:34:04.540Z,13.30
2023-05-09T05:36:32.139Z,13.30
2023-05-09T05:38:58.923Z,13.30
2023-05-09T05:41:26.215Z,13.30
2023-05-09T05:43:54.265Z,13.40
2023-05-09T05:46:21.293Z,13.30
2023-05-09T05:48:48.119Z,13.30
2023-05-09T05:51:14.813Z,13.40
2023-05-09T05:53:41.581Z,13.40
2023-05-09T05:56:08.295Z,13.40
2023-05-09T05:58:35.026Z,13.30
2023-05-09T06:01:02.363Z,13.40
2023-05-09T06:03:32.489Z,13.40
2023-05-09T06:05:59.407Z,13.40
2023-05-09T06:08:26.113Z,13.40
2023-05-09T06:10:52.846Z,13.50
2023-05-09T06:13:19.619Z,13.50
2023-05-09T06:15:46.423Z,13.60
2023-05-09T06:18:13.181Z,13.60
2023-05-09T06:20:39.952Z,13.70
2023-05-09T06:23:06.901Z,13.70
2023-05-09T06:25:33.650Z,13.60
2023-05-09T06:28:00.617Z,13.70
2023-05-09T06:30:27.397Z,13.70
2023-05-09T06:32:58.345Z,13.80
2023-05-09T06:35:25.158Z,13.80
2023-05-09T06:37:51.824Z,13.80
2023-05-09T06:40:18.626Z,13.80
2023-05-09T06:42:45.538Z,13.80
2023-05-09T06:45:12.761Z,13.90
2023-05-09T06:47:39.675Z,13.90
2023-05-09T06:50:07.097Z,13.90
2023-05-09T06:52:33.785Z,13.90
2023-05-09T06:55:00.487Z,14.00
2023-05-09T06:57:27.232Z,14.00
2023-05-09T06:59:53.920Z,14.00
2023-05-09T07:02:20.665Z,13.90
2023-05-09T07:04:47.540Z,14.00
2023-05-09T07:07:17.357Z,14.00
2023-05-09T07:09:44.109Z,14.00
2023-05-09T07:12:10.773Z,13.90
2023-05-09T07:14:38.833Z,14.00
2023-05-09T07:17:21.148Z,14.10
2023-05-09T07:19:50.109Z,14.10
2023-05-09T07:22:17.179Z,14.00
2023-05-09T07:24:49.141Z,14.00
2023-05-09T07:27:16.046Z,14.10
2023-05-09T07:29:42.805Z,14.10
2023-05-09T07:32:09.768Z,14.10
2023-05-09T07:34:36.618Z,14.30
2023-05-09T07:37:03.784Z,14.30
2023-05-09T07:39:30.741Z,14.40
2023-05-09T07:41:57.500Z,14.50
2023-05-09T07:44:24.267Z,14.60
2023-05-09T07:46:51.025Z,14.50
2023-05-09T07:49:18.038Z,14.60
2023-05-09T07:51:44.747Z,14.60
2023-05-09T07:54:11.574Z,14.60
2023-05-09T07:56:38.245Z,14.70
2023-05-09T07:59:04.938Z,14.70
2023-05-09T08:01:31.770Z,14.70
2023-05-09T08:03:58.511Z,14.70
2023-05-09T08:06:26.226Z,14.70
2023-05-09T08:08:52.954Z,14.80
2023-05-09T08:11:19.616Z,14.80
2023-05-09T08:13:46.917Z,14.80
2023-05-09T08:16:13.985Z,14.90
2023-05-09T08:18:40.721Z,14.90
2023-05-09T08:21:07.398Z,15.10
2023-05-09T08:23:34.182Z,15.10
2023-05-09T08:26:01.042Z,15.20
2023-05-09T08:28:28.644Z,15.30
2023-05-09T08:30:56.829Z,15.20
2023-05-09T08:33:24.635Z,15.30
2023-05-09T08:35:52.085Z,15.40
2023-05-09T08:38:19.021Z,15.40
2023-05-09T08:40:45.842Z,15.50
2023-05-09T08:43:12.877Z,15.50
2023-05-09T08:45:45.321Z,15.50
2023-05-09T08:48:11.969Z,15.60
2023-05-09T08:50:40.302Z,15.60
2023-05-09T08:53:07.017Z,15.70
2023-05-09T08:55:33.701Z,15.50
2023-05-09T08:58:00.443Z,15.50
2023-05-09T09:00:27.241Z,15.50
2023-05-09T09:02:54.489Z,15.60
2023-05-09T09:05:40.120Z,15.60
2023-05-09T09:08:08.499Z,15.80
2023-05-09T09:10:35.412Z,15.90
2023-05-09T09:13:05.101Z,16.00
2023-05-09T09:15:38.864Z,16.00
2023-05-09T09:18:10.103Z,16.00
2023-05-09T09:20:52.314Z,16.10
2023-05-09T09:23:20.453Z,16.00
2023-05-09T09:25:47.732Z,16.00
2023-05-09T09:28:14.736Z,15.80
2023-05-09T09:30:45.812Z,15.70
2023-05-09T09:33:19.541Z,15.70
2023-05-09T09:35:46.332Z,15.60
2023-05-09T09:38:12.983Z,15.50
2023-05-09T09:40:40.656Z,15.60
2023-05-09T09:43:07.990Z,15.80
2023-05-09T09:45:34.750Z,15.90
2023-05-09T09:48:01.523Z,15.80
2023-05-09T09:50:28.475Z,15.80
2023-05-09T09:52:56.481Z,15.70
2023-05-09T09:55:24.301Z,15.80
2023-05-09T09:57:51.285Z,16.00
2023-05-09T10:00:19.835Z,16.00
2023-05-09T10:02:50.655Z,16.00
2023-05-09T10:05:24.066Z,15.90
2023-05-09T10:07:58.879Z,15.90
2023-05-09T10:10:32.860Z,16.00
2023-05-09T10:13:04.360Z,16.10
2023-05-09T10:15:41.370Z,16.10
2023-05-09T10:18:12.408Z,16.10
2023-05-09T10:20:40.827Z,16.20
2023-05-09T10:23:07.512Z,16.40
2023-05-09T10:25:43.713Z,16.40
2023-05-09T10:28:15.126Z,16.50
2023-05-09T10:30:52.352Z,16.40
2023-05-09T10:33:21.628Z,16.40
2023-05-09T10:35:48.330Z,16.50
2023-05-09T10:38:15.179Z,16.70
2023-05-09T10:40:42.084Z,16.70
2023-05-09T10:43:08.846Z,16.80
2023-05-09T10:45:35.592Z,17.00
2023-05-09T10:48:04.002Z,17.10
2023-05-09T10:50:30.922Z,17.30
2023-05-09T10:53:03.923Z,17.20
2023-05-09T10:55:59.010Z,17.10
2023-05-09T10:58:33.448Z,17.00
2023-05-09T11:01:01.333Z,17.10
2023-05-09T11:03:29.240Z,17.20
2023-05-09T11:05:56.944Z,17.20
2023-05-09T11:08:30.597Z,17.20
2023-05-09T11:10:57.669Z,17.30
2023-05-09T11:13:25.631Z,17.30
2023-05-09T11:16:01.816Z,17.60
2023-05-09T11:18:29.132Z,17.90
2023-05-09T11:20:56.193Z,18.10
2023-05-09T11:23:26.814Z,18.10
2023-05-09T11:25:53.775Z,18.00
2023-05-09T11:28:33.818Z,17.90
2023-05-09T11:31:10.451Z,18.00
2023-05-09T11:33:37.439Z,18.00
2023-05-09T11:36:29.769Z,18.00
2023-05-09T11:39:06.775Z,17.70
2023-05-09T11:41:43.840Z,17.60
2023-05-09T11:44:18.044Z,17.60
2023-05-09T11:46:45.889Z,17.70
2023-05-09T11:49:12.774Z,17.70
2023-05-09T11:51:39.703Z,17.50
2023-05-09T11:54:07.362Z,17.40
2023-05-09T11:56:38.735Z,17.40
2023-05-09T11:59:05.409Z,17.40
2023-05-09T12:01:32.214Z,17.40
2023-05-09T12:04:01.421Z,17.40
2023-05-09T12:06:29.901Z,17.50
2023-05-09T12:08:59.636Z,17.50
2023-05-09T12:11:26.474Z,17.60
2023-05-09T12:13:53.489Z,17.60
2023-05-09T12:16:21.805Z,17.70
2023-05-09T12:18:52.617Z,17.60
2023-05-09T12:21:19.713Z,17.50
2023-05-09T12:23:48.946Z,17.60
2023-05-09T12:26:17.603Z,17.70
2023-05-09T12:28:44.341Z,17.80
2023-05-09T12:31:11.100Z,17.80
2023-05-09T12:33:38.762Z,17.80
2023-05-09T12:36:11.219Z,17.90
2023-05-09T12:38:38.506Z,18.00
2023-05-09T12:41:06.695Z,17.90
2023-05-09T12:43:35.656Z,18.00
2023-05-09T12:46:02.695Z,18.00
2023-05-09T12:48:30.272Z,18.10
2023-05-09T12:50:57.047Z,18.30
2023-05-09T12:53:25.439Z,18.50
2023-05-09T12:55:56.408Z,18.60
2023-05-09T12:58:23.114Z,18.70
2023-05-09T13:00:49.922Z,18.80
2023-05-09T13:03:21.333Z,18.90
2023-05-09T13:06:00.517Z,19.00
2023-05-09T13:08:27.719Z,19.10
2023-05-09T13:11:03.967Z,19.30
2023-05-09T13:13:41.297Z,19.40
2023-05-09T13:16:10.081Z,19.40
2023-05-09T13:18:37.740Z,19.50
2023-05-09T13:21:04.460Z,19.50
2023-05-09T13:23:31.180Z,19.30
2023-05-09T13:25:57.841Z,19.20
2023-05-09T13:28:24.559Z,19.20
2023-05-09T13:30:51.313Z,19.20
2023-05-09T13:33:25.875Z,19.20
2023-05-09T13:35:53.400Z,19.30
2023-05-09T13:38:20.098Z,19.40
2023-05-09T13:40:46.954Z,19.50
2023-05-09T13:43:13.655Z,19.50
2023-05-09T13:45:40.516Z,19.60
2023-05-09T13:48:07.216Z,19.50
2023-05-09T13:50:34.286Z,19.70
2023-05-09T13:53:01.051Z,19.80
2023-05-09T13:55:27.870Z,19.90
2023-05-09T13:57:54.951Z,20.00
2023-05-09T14:00:22.264Z,19.90
2023-05-09T14:02:49.342Z,19.90
2023-05-09T14:05:16.935Z,19.90
2023-05-09T14:07:43.961Z,19.80
2023-05-09T14:10:12.300Z,19.90
2023-05-09T14:12:40.063Z,19.70
2023-05-09T14:15:07.962Z,19.80
2023-05-09T14:17:34.938Z,19.70
2023-05-09T14:20:01.813Z,19.70
2023-05-09T14:22:28.498Z,19.50
2023-05-09T14:24:57.382Z,19.40
2023-05-09T14:27:25.112Z,19.30
2023-05-09T14:29:58.359Z,19.30
2023-05-09T14:32:25.435Z,19.20
2023-05-09T14:34:52.223Z,19.20
2023-05-09T14:37:18.951Z,19.10
2023-05-09T14:39:46.790Z,19.00
2023-05-09T14:42:14.245Z,18.80
2023-05-09T14:44:41.531Z,18.70
2023-05-09T14:47:09.235Z,18.70
2023-05-09T14:49:36.916Z,18.70
2023-05-09T14:52:03.671Z,18.60
2023-05-09T14:54:30.390Z,18.60
2023-05-09T14:56:59.374Z,18.60
2023-05-09T14:59:26.306Z,18.50
2023-05-09T15:01:53.720Z,18.50
2023-05-09T15:04:20.591Z,18.40
2023-05-09T15:06:47.348Z,18.30
2023-05-09T15:09:14.703Z,18.30
2023-05-09T15:11:48.364Z,18.40
2023-05-09T15:14:16.695Z,18.40
2023-05-09T15:16:43.959Z,18.30
2023-05-09T15:19:10.888Z,18.30
2023-05-09T15:21:37.654Z,18.30
2023-05-09T15:24:05.121Z,18.30
2023-05-09T15:26:32.085Z,18.10
2023-05-09T15:28:58.956Z,18.20
2023-05-09T15:31:25.891Z,18.00
2023-05-09T15:33:52.780Z,18.00
2023-05-09T15:36:19.474Z,17.90
2023-05-09T15:38:49.539Z,17.80
2023-05-09T15:41:16.759Z,17.70
2023-05-09T15:43:43.602Z,17.60
2023-05-09T15:46:10.526Z,17.50
2023-05-09T15:48:37.302Z,17.30
2023-05-09T15:51:04.210Z,17.10
2023-05-09T15:53:31.222Z,17.00
2023-05-09T15:55:58.194Z,16.70
2023-05-09T15:58:25.023Z,16.30
2023-05-09T16:00:51.805Z,16.00
2023-05-09T16:03:18.954Z,15.80
2023-05-09T16:05:45.758Z,15.50
2023-05-09T16:08:12.542Z,15.10
2023-05-09T16:10:39.297Z,14.80
2023-05-09T16:13:06.694Z,14.60
2023-05-09T16:15:33.897Z,14.50
2023-05-09T16:18:00.683Z,14.50
2023-05-09T16:20:27.360Z,14.50
2023-05-09T16:22:54.027Z,14.50
2023-05-09T16:25:35.496Z,14.50
2023-05-09T16:28:02.505Z,14.60
2023-05-09T16:30:29.503Z,14.60
2023-05-09T16:32:56.442Z,14.80
2023-05-09T16:35:23.244Z,14.90
2023-05-09T16:37:49.949Z,15.10
2023-05-09T16:40:17.283Z,15.30
2023-05-09T16:42:44.249Z,15.50
2023-05-09T16:45:11.457Z,15.60
2023-05-09T16:47:38.230Z,15.80
2023-05-09T16:50:05.437Z,16.00
2023-05-09T16:52:32.276Z,16.20
2023-05-09T16:54:59.477Z,16.30
2023-05-09T16:57:26.356Z,16.40
2023-05-09T16:59:53.867Z,16.50
2023-05-09T17:02:20.588Z,16.70
2023-05-09T17:04:47.665Z,16.70
2023-05-09T17:07:14.545Z,16.90
2023-05-09T17:09:41.418Z,17.10
2023-05-09T17:12:10.818Z,17.20
2023-05-09T17:14:37.591Z,17.60
2023-05-09T17:17:07.036Z,17.50
2023-05-09T17:19:34.852Z,17.50
2023-05-09T17:22:04.456Z,17.40
2023-05-09T17:24:32.274Z,17.30
2023-05-09T17:26:59.339Z,17.20
2023-05-09T17:29:29.044Z,17.10
2023-05-09T17:32:02.228Z,17.00
2023-05-09T17:34:29.229Z,17.00
2023-05-09T17:36:56.252Z,17.00
2023-05-09T17:39:23.394Z,16.90
2023-05-09T17:41:50.206Z,16.80
2023-05-09T17:44:16.958Z,16.70
2023-05-09T17:46:44.178Z,16.70
2023-05-09T17:49:13.941Z,16.70
2023-05-09T17:51:40.964Z,16.60
2023-05-09T17:54:07.755Z,16.50
2023-05-09T17:56:34.589Z,16.30
2023-05-09T17:59:01.566Z,16.20
2023-05-09T18:01:28.532Z,16.10
2023-05-09T18:03:55.470Z,16.10
2023-05-09T18:06:22.293Z,15.90
2023-05-09T18:08:49.227Z,15.80
2023-05-09T18:11:16.302Z,15.60
2023-05-09T18:13:43.007Z,15.60
2023-05-09T18:16:09.882Z,15.60
2023-05-09T18:18:36.861Z,15.40
2023-05-09T18:21:05.344Z,15.30
2023-05-09T18:23:32.159Z,15.20
2023-05-09T18:25:59.139Z,15.10
2023-05-09T18:28:25.959Z,15.10
2023-05-09T18:30:59.819Z,15.10
2023-05-09T18:33:27.454Z,15.00
2023-05-09T18:35:55.114Z,15.00
2023-05-09T18:38:22.574Z,14.90
2023-05-09T18:40:51.703Z,14.80
2023-05-09T18:43:20.625Z,14.80
2023-05-09T18:45:48.111Z,14.70
2023-05-09T18:48:18.009Z,14.60
2023-05-09T18:50:44.801Z,14.50
2023-05-09T18:53:11.690Z,14.50
2023-05-09T18:55:38.852Z,14.50
2023-05-09T18:58:06.336Z,14.40
2023-05-09T19:00:34.769Z,14.30
2023-05-09T19:03:01.670Z,14.20
2023-05-09T19:05:28.463Z,14.10
2023-05-09T19:07:55.130Z,14.10
2023-05-09T19:10:21.857Z,14.10
2023-05-09T19:12:49.210Z,14.00
2023-05-09T19:15:16.051Z,14.00
2023-05-09T19:17:43.163Z,14.00
2023-05-09T19:20:10.773Z,13.90
2023-05-09T19:22:37.552Z,13.80
2023-05-09T19:25:04.387Z,13.70
2023-05-09T19:27:31.121Z,13.50
2023-05-09T19:29:59.333Z,13.30
2023-05-09T19:32:26.065Z,13.20
2023-05-09T19:34:52.816Z,13.30
2023-05-09T19:37:19.491Z,13.40
2023-05-09T19:39:46.183Z,13.40
2023-05-09T19:42:13.011Z,13.40
2023-05-09T19:44:40.487Z,13.50
2023-05-09T19:47:08.945Z,13.50
2023-05-09T19:49:35.671Z,13.40
2023-05-09T19:52:02.520Z,13.40
2023-05-09T19:54:30.351Z,13.30
2023-05-09T19:56:57.088Z,13.30
2023-05-09T19:59:23.798Z,13.30
2023-05-09T20:01:50.784Z,13.30
2023-05-09T20:04:21.616Z,13.40
2023-05-09T20:06:48.700Z,13.40
2023-05-09T20:09:20.855Z,13.40
2023-05-09T20:11:48.219Z,13.40
2023-05-09T20:14:15.029Z,13.40
2023-05-09T20:16:42.499Z,13.40
2023-05-09T20:19:09.759Z,13.30
2023-05-09T20:21:36.559Z,13.30
2023-05-09T20:24:03.451Z,13.20
2023-05-09T20:26:30.375Z,13.20
2023-05-09T20:29:01.498Z,13.20
2023-05-09T20:31:29.118Z,13.30
2023-05-09T20:33:57.500Z,13.30
2023-05-09T20:36:24.892Z,13.30
2023-05-09T20:38:51.644Z,13.30
2023-05-09T20:41:18.423Z,13.30
2023-05-09T20:43:45.114Z,13.20
2023-05-09T20:46:11.982Z,13.20
2023-05-09T20:48:38.836Z,13.30
2023-05-09T20:51:05.660Z,13.30
2023-05-09T20:53:34.837Z,13.20
2023-05-09T20:56:01.900Z,13.30
2023-05-09T20:58:32.245Z,13.20
2023-05-09T21:00:59.025Z,13.20
2023-05-09T21:03:25.868Z,13.20
2023-05-09T21:05:53.295Z,13.20
2023-05-09T21:08:20.011Z,13.20
2023-05-09T21:10:46.762Z,13.10
2023-05-09T21:13:13.535Z,13.10
2023-05-09T21:15:40.337Z,13.10
2023-05-09T21:18:07.233Z,13.10
2023-05-09T21:20:33.988Z,13.10
2023-05-09T21:23:00.694Z,13.10
2023-05-09T21:25:27.406Z,13.10
2023-05-09T21:27:54.082Z,13.10
2023-05-09T21:30:20.845Z,13.10
2023-05-09T21:32:47.725Z,13.00
2023-05-09T21:35:15.370Z,13.10
2023-05-09T21:37:42.059Z,13.10
2023-05-09T21:40:09.580Z,13.00
2023-05-09T21:42:37.404Z,13.00
2023-05-09T21:45:04.548Z,12.90
2023-05-09T21:47:31.460Z,12.90
2023-05-09T21:49:58.380Z,13.00
2023-05-09T21:52:25.184Z,13.00
2023-05-09T21:54:51.886Z,12.90
2023-05-09T21:57:18.543Z,12.90
2023-05-09T21:59:45.271Z,12.90
2023-05-09T22:02:12.015Z,12.80
2023-05-09T22:04:40.211Z,12.70
2023-05-09T22:07:07.599Z,12.60
2023-05-09T22:09:35.075Z,12.60
2023-05-09T22:12:01.827Z,12.60
2023-05-09T22:14:28.551Z,12.50
2023-05-09T22:16:55.328Z,12.50
2023-05-09T22:19:22.053Z,12.50
2023-05-09T22:21:49.127Z,12.50
2023-05-09T22:24:16.230Z,12.50
2023-05-09T22:26:43.061Z,12.40
2023-05-09T22:29:09.846Z,12.30
2023-05-09T22:31:36.745Z,12.30
2023-05-09T22:34:03.740Z,12.30
2023-05-09T22:36:30.421Z,12.40
2023-05-09T22:38:57.104Z,12.30
2023-05-09T22:41:23.781Z,12.40
2023-05-09T22:43:50.930Z,12.40
2023-05-09T22:46:17.639Z,12.40
2023-05-09T22:48:44.411Z,12.40
2023-05-09T22:51:11.746Z,12.40
2023-05-09T22:53:38.474Z,12.30
2023-05-09T22:56:05.476Z,12.30
2023-05-09T22:58:32.202Z,12.30
2023-05-09T23:00:58.987Z,12.30
2023-05-09T23:03:25.972Z,12.20
2023-05-09T23:05:52.838Z,12.20
2023-05-09T23:08:19.481Z,12.30
2023-05-09T23:10:46.284Z,12.30
2023-05-09T23:13:13.089Z,12.30
2023-05-09T23:15:39.811Z,12.20
2023-05-09T23:18:07.042Z,12.20
2023-05-09T23:20:33.754Z,12.20
2023-05-09T23:23:00.480Z,12.20
2023-05-09T23:25:27.294Z,12.20
2023-05-09T23:27:54.558Z,12.10
2023-05-09T23:30:21.279Z,12.10
2023-05-09T23:32:47.953Z,12.00
2023-05-09T23:35:14.861Z,11.90
2023-05-09T23:37:41.504Z,11.90
2023-05-09T23:40:08.690Z,11.80
2023-05-09T23:42:35.353Z,11.80
2023-05-09T23:45:02.338Z,11.70
2023-05-09T23:47:29.016Z,11.70
2023-05-09T23:49:55.692Z,11.70
2023-05-09T23:52:23.370Z,11.70
2023-05-09T23:54:50.110Z,11.60
2023-05-09T23:57:16.809Z,11.60
2023-05-09T23:59:43.531Z,11.60
